Grand Junction, Michigan
Current Conditions -  °F | °C
As of 3:15 PM on Saturday 25 Oct 2014 (Local Time) from KLWA Reporting Station
Clear Clear  
Wind Chill: 64°   Ceiling: Unl
Heat Index: 64°   Visibility: 10mi
Dew Point: 47°   Wind: 13mph
Humidity: 53%   Direction: 280°W
Pressure: 29.88"   Gusts: 18mph
Location:  42.4°N, 86.07°W
Report Text: KLWA 251915Z AUTO 28011G16KT 10SM CLR 18/08 A2988 RMK AO2 T01780081
Loading
Personal Weather Stations






























Interactive Weather Map
Tropical Storm Tracking
New forecast layout! Learn more

10-Day Weather Forecast

Advertisements
Track Severe Weather on mobile